• Join FlightAware (Why Join?)
  • Login
  • US Flag 
10:42PM EST


 

Airport Tracker/Info


-or-


 

Live Flight TrackerFlight Track Log ✈ AAL1053 ✈ 21-Mar-2014 ✈ KDFW - KELP

Flight Track Log - Related Links

Times and Time Zones

All times are in EDT time to prevent confusion due to time zone crossing. See the AAL1053 flight status page for this flight to view local times or setup timezone preferences in your user account.

Time Position Orientation Groundspeed Altitude Reporting Facility
EDT Latitude Longitude Course Direction KTS MPH feet Rate Location/Type
11:51PM 32.6833 -97.2080 270° West  Level FlightAware Approximate
11:52PM 32.6898 -97.3339 275° West  Level FlightAware Approximate
11:53PM 32.6995 -97.4597 275° West  Level FlightAware Approximate
11:54PM 32.7092 -97.5855 275° West  Level FlightAware Approximate
11:55PM 32.7167 -97.7114 270° West  Level FlightAware Approximate
11:56PM 32.7167 -97.8377 270° West  Level FlightAware Approximate
11:57PM 32.7167 -97.9640 270° West  Level FlightAware Approximate
11:58PM 32.7046 -98.0889 259° West  Level FlightAware Approximate
11:59PM 32.6879 -98.2136 262° West  Level FlightAware Approximate
12:00AM 32.6708 -98.3382 260° West  Level FlightAware Approximate
12:01AM 32.6530 -98.4626 260° West  Level FlightAware Approximate
12:02AM 32.6396 -98.5878 263° West  Level FlightAware Approximate
12:03AM 32.6257 -98.7129 262° West  Level FlightAware Approximate
12:04AM 32.6103 -98.8378 262° West  Level FlightAware Approximate
12:05AM 32.5949 -98.9626 262° West  Level FlightAware Approximate
12:06AM 32.5793 -99.0873 262° West  Level FlightAware Approximate
12:07AM 32.5636 -99.2121 262° West  Level FlightAware Approximate
12:08AM 32.5478 -99.3368 261° West  Level FlightAware Approximate
12:09AM 32.5315 -99.4613 259° West  Level FlightAware Approximate
12:10AM 32.5110 -99.5850 259° West  Level FlightAware Approximate
12:11AM 32.4904 -99.7086 259° West  Level FlightAware Approximate
12:12AM 32.4697 -99.8322 259° West  Level FlightAware Approximate
12:13AM 32.4534 -99.9566 262° West  Level FlightAware Approximate
12:14AM 32.4336 -100.0803 259° West  Level FlightAware Approximate
12:15AM 32.4125 -100.2037 259° West  Level FlightAware Approximate
12:16AM 32.3913 -100.3271 259° West  Level FlightAware Approximate
12:17AM 32.3700 -100.4503 258° West  Level FlightAware Approximate
12:18AM 32.3486 -100.5736 258° West  Level FlightAware Approximate
12:19AM 32.3271 -100.6967 258° West  Level FlightAware Approximate
12:20AM 32.3055 -100.8199 258° West  Level FlightAware Approximate
12:21AM 32.2837 -100.9429 258° West  Level FlightAware Approximate
12:22AM 32.2618 -101.0659 258° West  Level FlightAware Approximate
12:23AM 32.2398 -101.1889 258° West  Level FlightAware Approximate
12:24AM 32.2177 -101.3117 258° West  Level FlightAware Approximate
12:25AM 32.1954 -101.4345 258° West  Level FlightAware Approximate
12:26AM 32.1731 -101.5573 258° West  Level FlightAware Approximate
12:27AM 32.1506 -101.6800 258° West  Level FlightAware Approximate
12:28AM 32.1289 -101.8029 258° West  Level FlightAware Approximate
12:29AM 32.1071 -101.9257 258° West  Level FlightAware Approximate
12:30AM 32.0851 -102.0484 258° West  Level FlightAware Approximate
12:31AM 32.0631 -102.1711 258° West  Level FlightAware Approximate
12:32AM 32.0409 -102.2937 258° West  Level FlightAware Approximate
12:33AM 32.0186 -102.4163 258° West  Level FlightAware Approximate
12:34AM 31.9962 -102.5388 258° West  Level FlightAware Approximate
12:35AM 31.9736 -102.6612 258° West  Level FlightAware Approximate
12:36AM 31.9510 -102.7836 258° West  Level FlightAware Approximate
12:37AM 31.9282 -102.9060 258° West  Level FlightAware Approximate
12:38AM 31.9053 -103.0282 258° West  Level FlightAware Approximate
12:39AM 31.8824 -103.1504 258° West  Level FlightAware Approximate
12:40AM 31.8715 -103.2731 278° West  Level FlightAware Approximate
12:41AM 31.8865 -103.3970 278° West  Level FlightAware Approximate
12:42AM 31.9013 -103.5210 278° West  Level FlightAware Approximate
12:43AM 31.9161 -103.6450 278° West  Level FlightAware Approximate
12:44AM 31.9197 -103.7699 276° West  Level FlightAware Approximate
12:45AM 31.9301 -103.8945 276° West  Level FlightAware Approximate
12:46AM 31.9455 -104.0184 280° West  Level FlightAware Approximate
12:47AM 31.9500 -104.1432 270° West  Level FlightAware Approximate
12:48AM 31.9657 -104.2670 279° West  Level FlightAware Approximate
12:49AM 31.9821 -104.3908 279° West  Level FlightAware Approximate
12:50AM 31.9649 -104.5105 266° West  Level FlightAware Approximate
12:51AM 31.9566 -104.6354 266° West  Level FlightAware Approximate
12:52AM 31.9459 -104.7599 260° West  Level FlightAware Approximate
12:53AM 31.9270 -104.8831 260° West  Level FlightAware Approximate
12:54AM 31.9167 -105.0072 270° West  Level FlightAware Approximate
12:55AM 31.9024 -105.1312 262° West  Level FlightAware Approximate
12:56AM 31.8890 -105.2554 263° West  Level FlightAware Approximate
12:57AM 31.8759 -105.3796 263° West  Level FlightAware Approximate
12:58AM 31.8667 -105.5040 270° West  Level FlightAware Approximate
12:59AM 31.8667 -105.6292 270° West  Level FlightAware Approximate
01:00AM 31.8667 -105.7543 270° West  Level FlightAware Approximate
01:01AM 31.8667 -105.8794 270° West  Level FlightAware Approximate
01:02AM 31.8587 -106.0041 265° West  Level FlightAware Approximate
01:03AM 31.8479 -106.1285 258° West  Level FlightAware Approximate
01:04AM 31.8256 -106.2508 258° West  Level FlightAware Approximate
01:05AM 31.8000 -106.3667 249° West  Level FlightAware Approximate
01:06AM 31.8072 -106.3764 249° West  Level Estimated
01:07AM 31.8072 -106.3764 249° West  Level Estimated
01:08AM 31.8072 -106.3764 249° West  Level Estimated
01:09AM 31.8072 -106.3764 249° West  Level Estimated
01:10AM 31.8072 -106.3764 249° West  Level Estimated
01:11AM 31.8072 -106.3764 249° West  Level Estimated
01:12AM 31.8072 -106.3764 249° West  Level Estimated
01:13AM 31.8072 -106.3764 249° West  Level Estimated
01:14AM 31.8072 -106.3764 249° West  Level Estimated
01:15AM 31.8072 -106.3764 249° West  Level Estimated